createdAt,value
2022-11-22T00:02:22.038Z,5.80
2022-11-22T00:04:48.657Z,5.70
2022-11-22T00:07:15.351Z,6.10
2022-11-22T00:09:42.161Z,5.30
2022-11-22T00:12:08.814Z,5.60
2022-11-22T00:14:35.534Z,5.30
2022-11-22T00:17:02.181Z,5.20
2022-11-22T00:19:28.913Z,4.90
2022-11-22T00:21:55.676Z,5.20
2022-11-22T00:24:22.267Z,4.90
2022-11-22T00:26:48.886Z,5.80
2022-11-22T00:29:16.097Z,5.20
2022-11-22T00:31:42.725Z,5.20
2022-11-22T00:34:09.401Z,5.20
2022-11-22T00:36:36.390Z,5.20
2022-11-22T00:39:03.144Z,5.10
2022-11-22T00:41:29.775Z,5.50
2022-11-22T00:43:56.386Z,5.40
2022-11-22T00:46:23.065Z,11.00
2022-11-22T00:48:49.876Z,6.30
2022-11-22T00:51:16.651Z,5.40
2022-11-22T00:53:43.307Z,6.20
2022-11-22T00:56:09.951Z,6.80
2022-11-22T00:58:36.590Z,12.90
2022-11-22T01:01:03.302Z,9.80
2022-11-22T01:03:30.045Z,6.00
2022-11-22T01:05:56.675Z,8.20
2022-11-22T01:08:23.367Z,10.60
2022-11-22T01:10:56.080Z,13.10
2022-11-22T01:13:22.798Z,8.40
2022-11-22T01:15:49.462Z,8.20
2022-11-22T01:18:16.150Z,6.50
2022-11-22T01:20:43.004Z,7.30
2022-11-22T01:23:09.658Z,7.10
2022-11-22T01:25:36.340Z,8.20
2022-11-22T01:28:02.952Z,8.20
2022-11-22T01:30:29.551Z,6.70
2022-11-22T01:32:56.167Z,7.40
2022-11-22T01:35:22.771Z,6.40
2022-11-22T01:37:49.475Z,6.40
2022-11-22T01:40:16.484Z,7.10
2022-11-22T01:42:56.709Z,6.80
2022-11-22T01:45:29.440Z,6.30
2022-11-22T01:48:02.111Z,7.00
2022-11-22T01:50:29.708Z,8.20
2022-11-22T01:52:56.509Z,7.30
2022-11-22T01:55:23.244Z,12.90
2022-11-22T01:57:50.730Z,14.30
2022-11-22T02:00:17.616Z,15.50
2022-11-22T02:02:46.471Z,10.70
2022-11-22T02:05:15.314Z,13.00
2022-11-22T02:07:45.553Z,13.10
2022-11-22T02:10:12.317Z,11.30
2022-11-22T02:12:38.922Z,15.40
2022-11-22T02:15:07.229Z,9.90
2022-11-22T02:17:34.259Z,11.40
2022-11-22T02:20:00.914Z,11.60
2022-11-22T02:22:45.947Z,9.80
2022-11-22T02:25:41.899Z,9.00
2022-11-22T02:28:09.112Z,10.60
2022-11-22T02:30:36.615Z,9.40
2022-11-22T02:33:03.867Z,11.10
2022-11-22T02:35:30.606Z,10.80
2022-11-22T02:38:08.808Z,10.40
2022-11-22T02:40:42.438Z,10.80
2022-11-22T02:43:11.653Z,10.60
2022-11-22T02:45:38.337Z,10.40
2022-11-22T02:51:26.606Z,11.20
2022-11-22T02:53:53.815Z,10.20
2022-11-22T02:56:20.443Z,10.50
2022-11-22T02:58:47.080Z,9.70
2022-11-22T03:01:14.022Z,11.60
2022-11-22T03:06:33.774Z,12.10
2022-11-22T11:45:28.922Z,22.60
2022-11-22T11:47:55.714Z,23.40
2022-11-22T11:50:24.953Z,24.40
2022-11-22T11:52:55.957Z,19.70
2022-11-22T11:55:22.722Z,22.10
2022-11-22T11:57:49.770Z,23.90
2022-11-22T12:00:22.356Z,24.40
2022-11-22T12:02:52.081Z,34.10
2022-11-22T12:05:18.772Z,22.20
2022-11-22T12:07:46.399Z,19.20
2022-11-22T12:10:50.056Z,31.90
2022-11-22T12:13:35.314Z,22.50
2022-11-22T12:16:19.164Z,25.20
2022-11-22T12:18:57.890Z,18.90
2022-11-22T12:21:36.687Z,19.90
2022-11-22T12:26:57.643Z,14.80
2022-11-22T12:29:24.335Z,14.80
2022-11-22T12:31:55.570Z,18.90
2022-11-22T12:34:36.628Z,17.20
2022-11-22T12:37:16.711Z,22.20
2022-11-22T12:39:47.244Z,14.40
2022-11-22T12:42:21.596Z,13.20
2022-11-22T12:44:53.150Z,14.80
2022-11-22T12:47:22.100Z,14.30
2022-11-22T12:48:23.810Z,14.90
2022-11-22T12:49:54.105Z,15.50
2022-11-22T12:52:39.641Z,17.50
2022-11-22T12:55:17.733Z,14.70
2022-11-22T12:58:03.281Z,14.50
2022-11-22T13:00:32.381Z,15.20
2022-11-22T13:03:22.276Z,16.00
2022-11-22T13:05:54.516Z,14.70
2022-11-22T13:08:41.460Z,15.10
2022-11-22T13:11:14.118Z,15.00
2022-11-22T13:13:52.396Z,13.80
2022-11-22T13:16:19.009Z,15.20
2022-11-22T13:18:48.263Z,16.40
2022-11-22T13:21:17.960Z,15.50
2022-11-22T13:23:56.103Z,14.90
2022-11-22T13:26:55.818Z,15.20
2022-11-22T13:29:24.308Z,15.10
2022-11-22T13:32:12.969Z,15.70
2022-11-22T13:34:41.749Z,16.40
2022-11-22T13:37:11.776Z,16.10
2022-11-22T13:44:51.208Z,17.40
2022-11-22T13:47:24.364Z,16.50
2022-11-22T13:49:51.749Z,19.80
2022-11-22T13:52:19.624Z,18.70
2022-11-22T13:54:46.346Z,23.10
2022-11-22T13:57:31.358Z,22.80
2022-11-22T14:00:13.916Z,21.50
2022-11-22T14:02:53.475Z,22.30
2022-11-22T14:05:36.599Z,23.40
2022-11-22T14:08:49.172Z,24.40
2022-11-22T14:11:36.456Z,26.50
2022-11-22T14:14:08.001Z,28.40
2022-11-22T14:16:40.727Z,29.10
2022-11-22T14:19:31.933Z,25.60
2022-11-22T14:22:05.846Z,24.20
2022-11-22T14:24:39.115Z,21.60
2022-11-22T14:27:43.677Z,22.50
2022-11-22T14:30:23.742Z,21.90
2022-11-22T14:33:15.307Z,27.50
2022-11-22T14:36:07.005Z,26.90
2022-11-22T14:42:35.974Z,27.40
2022-11-22T14:45:11.855Z,27.20
2022-11-22T14:47:53.766Z,27.30
2022-11-22T14:50:39.124Z,23.30
2022-11-22T14:53:32.207Z,30.50
2022-11-22T14:56:20.446Z,30.20
2022-11-22T14:59:06.332Z,33.70
2022-11-22T15:01:39.862Z,33.30
2022-11-22T15:09:12.791Z,36.10
2022-11-22T15:09:20.685Z,32.40
2022-11-22T15:10:43.732Z,36.40
2022-11-22T15:13:33.594Z,28.10
2022-11-22T15:59:36.474Z,34.50
2022-11-22T16:02:03.184Z,32.30
2022-11-22T16:04:32.000Z,30.40
2022-11-22T16:07:00.700Z,26.70
2022-11-22T16:09:36.985Z,29.00
2022-11-22T16:12:30.408Z,28.20
2022-11-22T16:14:57.193Z,28.90
2022-11-22T16:17:32.251Z,28.30
2022-11-22T16:20:30.980Z,27.40
2022-11-22T16:23:09.904Z,27.20
2022-11-22T16:25:38.152Z,29.60
2022-11-22T16:28:29.255Z,37.00
2022-11-22T16:31:24.010Z,36.00
2022-11-22T16:33:51.700Z,32.90
2022-11-22T16:36:19.476Z,33.70
2022-11-22T16:38:46.288Z,28.90
2022-11-22T16:41:24.668Z,29.90
2022-11-22T16:44:01.922Z,27.90
2022-11-22T16:46:28.666Z,27.90
2022-11-22T16:48:55.718Z,31.20
2022-11-22T16:51:28.538Z,30.30
2022-11-22T16:53:58.834Z,26.40
2022-11-22T16:56:29.661Z,28.70
2022-11-22T16:58:57.082Z,29.80
2022-11-22T17:01:30.965Z,31.80
2022-11-22T17:03:57.973Z,34.20
2022-11-22T17:06:28.955Z,44.60
2022-11-22T17:08:56.776Z,41.10
2022-11-22T17:11:25.260Z,40.30
2022-11-22T17:13:51.919Z,50.90
2022-11-22T17:16:18.576Z,53.30
2022-11-22T17:18:46.319Z,50.00
2022-11-22T17:21:37.778Z,42.90
2022-11-22T17:24:06.610Z,32.00
2022-11-22T17:26:34.724Z,27.80
2022-11-22T17:29:01.595Z,32.00
2022-11-22T17:31:28.304Z,40.80
2022-11-22T17:33:56.400Z,31.40
2022-11-22T17:36:32.778Z,26.00
2022-11-22T17:39:00.428Z,30.80
2022-11-22T17:41:27.243Z,29.30
2022-11-22T17:43:54.109Z,26.40
2022-11-22T17:46:20.777Z,33.50
2022-11-22T17:48:52.852Z,55.30
2022-11-22T17:51:19.545Z,191.90
2022-11-22T17:53:46.279Z,172.40
2022-11-22T23:40:39.360Z,17.10
2022-11-22T23:43:06.096Z,16.30
2022-11-22T23:45:32.704Z,15.40
2022-11-22T23:47:59.415Z,14.20
2022-11-22T23:50:26.083Z,15.60
2022-11-22T23:52:56.950Z,14.80
2022-11-22T23:55:23.966Z,14.60
2022-11-22T23:57:50.637Z,13.60
